Time;durP1;ratioP1;P1;durP2;ratioP2;P2;SDS_P1;SDS_P2;PMS_P1;PMS_P2;Temp;Humidity;BMP_temperature;BMP_pressure;BME280_temperature;BME280_humidity;BME280_pressure;Samples;Min_cycle;Max_cycle;Signal;HPM_P1;HPM_P2
2021/07/14 00:01:00;;;;;;;;;;;21.50;99.90;;;20.44;100.00;99849.78;4970946;28;20369;-86
2021/07/14 00:03:28;;;;;;;;;;;21.50;99.90;;;20.43;100.00;99848.97;4954077;28;20387;-86
2021/07/14 00:05:55;;;;;;;;;;;21.50;99.90;;;20.43;100.00;99843.44;4972029;28;20036;-85
2021/07/14 00:08:22;;;;;;;;;;;21.50;99.90;;;20.42;100.00;99852.81;4972470;28;19926;-86
2021/07/14 00:10:49;;;;;;;;;;;21.50;99.90;;;20.43;100.00;99853.69;4954774;28;19932;-86
2021/07/14 00:13:32;;;;;;;;;;;21.50;99.90;;;20.44;100.00;99855.31;4972371;28;19980;-85
2021/07/14 00:24:26;;;;;;;;;;;21.50;99.90;;;20.42;100.00;99865.81;4930465;29;19930;-85
2021/07/14 00:26:53;;;;;;;;;;;21.50;99.90;;;20.41;100.00;99866.91;4944470;28;20012;-85
2021/07/14 00:29:20;;;;;;;;;;;21.50;99.90;;;20.42;100.00;99868.56;4954612;28;20364;-86
2021/07/14 00:31:48;;;;;;;;;;;21.50;99.90;;;20.42;100.00;99865.81;4971805;28;20012;-85
2021/07/14 00:34:15;;;;;;;;;;;21.50;99.90;;;20.41;100.00;99867.75;4971879;28;20030;-86
2021/07/14 00:36:42;;;;;;;;;;;21.50;99.90;;;20.40;100.00;99866.06;4954058;28;19926;-86
2021/07/14 00:39:09;;;;;;;;;;;21.50;99.90;;;20.40;100.00;99866.06;4971728;28;19930;-85
2021/07/14 00:41:36;;;;;;;;;;;21.50;99.90;;;20.40;100.00;99868.00;4971790;28;19926;-86
2021/07/14 00:44:04;;;;;;;;;;;21.40;99.90;;;20.40;100.00;99866.06;4971603;28;19921;-85
2021/07/14 00:46:31;;;;;;;;;;;21.50;99.90;;;20.40;100.00;99868.00;4971393;28;20025;-86
2021/07/14 00:49:01;;;;;;;;;;;21.50;99.90;;;20.39;100.00;99869.94;4971462;28;20028;-85
2021/07/14 00:51:30;;;;;;;;;;;21.40;99.90;;;20.39;100.00;99861.66;4971583;28;19926;-86
2021/07/14 00:53:58;;;;;;;;;;;21.40;99.90;;;20.40;100.00;99868.00;4953916;28;20436;-86
2021/07/14 00:56:26;;;;;;;;;;;21.40;99.90;;;20.38;100.00;99867.44;4971196;28;20379;-85
2021/07/14 00:58:55;;;;;;;;;;;21.40;99.90;;;20.39;100.00;99867.19;4971477;28;19925;-85
2021/07/14 01:01:22;;;;;;;;;;;21.40;99.90;;;20.38;100.00;99861.91;4971368;28;19926;-85
2021/07/14 01:03:56;;;;;;;;;;;21.40;99.90;;;20.37;100.00;99863.00;4953941;28;19922;-85
2021/07/14 01:06:33;;;;;;;;;;;21.40;99.90;;;20.37;100.00;99865.78;4970915;28;19981;-85
2021/07/14 01:09:03;;;;;;;;;;;21.40;99.90;;;20.37;100.00;99863.00;4954024;28;19965;-86
2021/07/14 01:11:34;;;;;;;;;;;21.40;99.90;;;20.36;100.00;99855.84;4953726;28;19928;-86
2021/07/14 01:14:07;;;;;;;;;;;21.40;99.90;;;20.35;100.00;99862.44;4971329;28;19996;-86
2021/07/14 01:16:40;;;;;;;;;;;21.40;99.90;;;20.35;100.00;99856.91;4970612;28;19973;-86
2021/07/14 01:19:26;;;;;;;;;;;21.40;99.90;;;20.33;100.00;99859.13;4953732;28;19968;-86
2021/07/14 01:21:57;;;;;;;;;;;21.40;99.90;;;20.32;100.00;99858.28;4970823;28;20362;-86
2021/07/14 01:24:30;;;;;;;;;;;21.40;99.90;;;20.34;100.00;99860.78;4971055;28;20000;-86
2021/07/14 01:27:07;;;;;;;;;;;21.40;99.90;;;20.33;100.00;99853.59;4953005;28;19977;-86
2021/07/14 01:29:36;;;;;;;;;;;21.40;99.90;;;20.31;100.00;99854.69;4971054;28;19930;-85
2021/07/14 01:32:04;;;;;;;;;;;21.40;99.90;;;20.30;100.00;99844.72;4970757;28;19932;-86
2021/07/14 01:34:32;;;;;;;;;;;21.40;99.90;;;20.30;100.00;99847.50;4970812;28;20012;-85
2021/07/14 01:37:01;;;;;;;;;;;21.40;99.90;;;20.29;100.00;99836.69;4952371;28;19926;-85
2021/07/14 01:39:29;;;;;;;;;;;21.30;99.90;;;20.28;100.00;99841.41;4970551;28;19922;-86
2021/07/14 01:41:57;;;;;;;;;;;21.30;99.90;;;20.28;100.00;99844.16;4970707;28;20411;-86
2021/07/14 01:44:28;;;;;;;;;;;21.30;99.90;;;20.28;100.00;99841.41;4953208;28;19925;-85
2021/07/14 01:46:58;;;;;;;;;;;21.30;99.90;;;20.28;100.00;99830.34;4953066;28;20306;-86
2021/07/14 01:49:29;;;;;;;;;;;21.30;99.90;;;20.28;100.00;99837.81;4970737;28;20576;-86
2021/07/14 01:52:00;;;;;;;;;;;21.30;99.90;;;20.27;100.00;99833.38;4970602;28;19932;-85
2021/07/14 01:54:28;;;;;;;;;;;21.30;99.90;;;20.27;100.00;99839.72;4970464;28;19926;-86
2021/07/14 01:56:56;;;;;;;;;;;21.30;99.90;;;20.27;100.00;99828.66;4952971;28;20041;-86
2021/07/14 01:59:24;;;;;;;;;;;21.30;99.90;;;20.27;100.00;99822.31;4953000;28;19996;-85
2021/07/14 02:01:53;;;;;;;;;;;21.30;99.90;;;20.26;100.00;99821.50;4967360;28;20028;-85
2021/07/14 02:07:06;;;;;;;;;;;21.30;99.90;;;20.26;100.00;99821.50;4952578;28;19926;-85
2021/07/14 02:09:35;;;;;;;;;;;21.30;99.90;;;20.26;100.00;99827.03;4970532;28;19981;-85
2021/07/14 02:12:03;;;;;;;;;;;21.30;99.90;;;20.25;100.00;99828.09;4970238;28;19976;-86
2021/07/14 02:14:34;;;;;;;;;;;21.30;99.90;;;20.26;100.00;99827.03;4953026;28;19922;-86
2021/07/14 02:17:06;;;;;;;;;;;21.30;99.90;;;20.25;100.00;99825.34;4969731;28;20282;-86
2021/07/14 02:19:36;;;;;;;;;;;21.30;99.90;;;20.23;100.00;99833.06;4970331;28;19926;-86
2021/07/14 02:22:04;;;;;;;;;;;21.30;99.90;;;20.24;100.00;99834.75;4952640;28;20029;-85
2021/07/14 02:24:33;;;;;;;;;;;21.30;99.90;;;20.25;100.00;99822.56;4952922;28;19965;-86
2021/07/14 02:27:05;;;;;;;;;;;21.30;99.90;;;20.24;100.00;99829.22;4969648;28;19929;-85
2021/07/14 02:29:34;;;;;;;;;;;21.30;99.90;;;20.25;100.00;99825.34;4970681;28;20022;-86
2021/07/14 02:32:02;;;;;;;;;;;21.30;99.90;;;20.25;100.00;99833.63;4969932;28;19926;-85
2021/07/14 02:34:30;;;;;;;;;;;21.30;99.90;;;20.25;100.00;99832.81;4970205;28;20549;-86
2021/07/14 02:36:59;;;;;;;;;;;21.30;99.90;;;20.23;100.00;99830.31;4952277;28;19976;-86
2021/07/14 02:39:27;;;;;;;;;;;21.30;99.90;;;20.23;100.00;99824.78;4970057;28;19926;-86
2021/07/14 02:42:03;;;;;;;;;;;21.30;99.90;;;20.20;100.00;99822.56;4970076;28;20044;-86
2021/07/14 02:44:34;;;;;;;;;;;21.20;99.90;;;20.22;100.00;99819.50;4952498;28;19976;-86
2021/07/14 02:47:03;;;;;;;;;;;21.20;99.90;;;20.22;100.00;99819.50;4971016;28;19929;-86
2021/07/14 02:49:32;;;;;;;;;;;21.20;99.90;;;20.20;100.00;99816.19;4973870;28;20398;-86
2021/07/14 02:52:00;;;;;;;;;;;21.20;99.90;;;20.19;100.00;99809.84;4973852;28;19934;-85
2021/07/14 02:54:29;;;;;;;;;;;21.20;99.90;;;20.19;100.00;99815.38;4973598;28;20693;-85
2021/07/14 02:57:01;;;;;;;;;;;21.20;99.90;;;20.18;100.00;99816.47;4973529;28;19968;-85
2021/07/14 02:59:30;;;;;;;;;;;21.20;99.90;;;20.20;100.00;99819.81;4973540;28;19926;-85
2021/07/14 03:01:57;;;;;;;;;;;21.20;99.90;;;20.19;100.00;99814.53;4973361;28;19936;-86
2021/07/14 03:04:30;;;;;;;;;;;21.20;99.90;;;20.19;100.00;99814.53;4973470;28;19955;-86
2021/07/14 03:07:02;;;;;;;;;;;21.20;99.90;;;20.18;100.00;99807.34;4972969;28;19962;-86
2021/07/14 03:09:37;;;;;;;;;;;21.20;99.90;;;20.17;100.00;99798.22;4973596;28;20021;-86
2021/07/14 03:12:07;;;;;;;;;;;21.20;99.90;;;20.16;100.00;99802.06;4973231;28;19949;-86
2021/07/14 03:14:37;;;;;;;;;;;21.20;99.90;;;20.17;100.00;99800.16;4973378;28;19926;-86
2021/07/14 03:17:05;;;;;;;;;;;21.20;99.90;;;20.16;100.00;99815.88;4972860;28;19976;-86
2021/07/14 03:19:34;;;;;;;;;;;21.20;99.90;;;20.15;100.00;99810.66;4955750;28;19926;-85
2021/07/14 03:22:02;;;;;;;;;;;21.20;99.90;;;20.15;100.00;99807.88;4973014;28;19979;-86
2021/07/14 03:24:29;;;;;;;;;;;21.20;99.90;;;20.15;100.00;99802.34;4973248;28;20379;-85
2021/07/14 03:26:57;;;;;;;;;;;21.20;99.90;;;20.15;100.00;99802.34;4972583;28;20330;-86
2021/07/14 03:29:25;;;;;;;;;;;21.20;99.90;;;20.15;100.00;99794.91;4955728;28;20028;-85
2021/07/14 03:31:52;;;;;;;;;;;21.20;99.90;;;20.15;100.00;99797.66;4973004;28;19969;-85
2021/07/14 03:34:20;;;;;;;;;;;21.10;99.90;;;20.13;100.00;99799.84;4972759;28;19957;-85
2021/07/14 03:36:49;;;;;;;;;;;21.10;99.90;;;20.13;100.00;99802.63;5003101;23;19924;-80
2021/07/14 03:39:17;;;;;;;;;;;21.10;99.90;;;20.13;100.00;99791.56;5031289;28;20164;-80
2021/07/14 03:41:45;;;;;;;;;;;21.10;99.90;;;20.12;100.00;99798.19;5031428;28;19928;-80
2021/07/14 03:44:14;;;;;;;;;;;21.10;99.90;;;20.13;100.00;99799.03;5031221;28;19925;-80
2021/07/14 03:46:42;;;;;;;;;;;21.10;99.90;;;20.13;100.00;99805.38;5024986;28;19956;-80
2021/07/14 03:49:11;;;;;;;;;;;21.10;99.90;;;20.13;100.00;99802.63;5011279;28;20452;-80
2021/07/14 03:51:38;;;;;;;;;;;21.10;99.90;;;20.13;100.00;99805.38;5011586;28;19925;-81
2021/07/14 03:54:07;;;;;;;;;;;21.10;99.90;;;20.12;100.00;99792.66;5011251;28;20360;-80
2021/07/14 03:56:34;;;;;;;;;;;21.10;99.90;;;20.12;100.00;99798.19;5011242;28;19933;-81
2021/07/14 03:59:01;;;;;;;;;;;21.10;99.90;;;20.11;100.00;99802.88;5010557;28;19927;-80
2021/07/14 04:01:29;;;;;;;;;;;21.10;99.90;;;20.10;100.00;99798.47;5006702;28;20032;-81
2021/07/14 04:03:56;;;;;;;;;;;21.10;99.90;;;20.12;100.00;99800.94;5011277;28;20453;-80
2021/07/14 04:06:23;;;;;;;;;;;21.10;99.90;;;20.10;100.00;99801.22;5010868;28;20384;-81
2021/07/14 04:09:20;;;;;;;;;;;21.10;99.90;;;20.11;100.00;99802.06;5011168;28;20645;-81
2021/07/14 04:11:49;;;;;;;;;;;21.10;99.90;;;20.11;100.00;99794.59;5009649;28;19921;-81
2021/07/14 04:14:16;;;;;;;;;;;21.10;99.90;;;20.11;100.00;99799.28;5011026;28;20025;-80
2021/07/14 04:16:43;;;;;;;;;;;21.10;99.90;;;20.11;100.00;99793.75;5010562;28;19983;-80
2021/07/14 04:19:10;;;;;;;;;;;21.10;99.90;;;20.10;100.00;99795.69;5011038;28;19967;-80
2021/07/14 04:21:37;;;;;;;;;;;21.10;99.90;;;20.10;100.00;99789.31;4993017;28;19926;-81
2021/07/14 04:24:05;;;;;;;;;;;21.10;99.90;;;20.09;100.00;99794.03;5010751;28;19967;-80
2021/07/14 04:26:34;;;;;;;;;;;21.10;99.90;;;20.09;100.00;99794.03;5010605;28;19967;-80
2021/07/14 04:29:02;;;;;;;;;;;21.10;99.90;;;20.09;100.00;99798.72;5010623;28;19957;-80
2021/07/14 04:31:29;;;;;;;;;;;21.10;99.90;;;20.07;100.00;99785.16;5010718;28;20735;-80
2021/07/14 04:33:56;;;;;;;;;;;21.10;99.90;;;20.09;100.00;99782.16;5010639;28;20033;-80
2021/07/14 04:36:23;;;;;;;;;;;21.10;99.90;;;20.08;100.00;99777.72;5010275;28;20003;-80
2021/07/14 04:38:50;;;;;;;;;;;21.10;99.90;;;20.08;100.00;99786.00;5010427;28;20028;-80
2021/07/14 04:41:18;;;;;;;;;;;21.10;99.90;;;20.09;100.00;99791.25;5010602;28;20011;-80
2021/07/14 04:43:46;;;;;;;;;;;21.10;99.90;;;20.08;100.00;99780.47;5010179;28;19926;-80
2021/07/14 04:46:13;;;;;;;;;;;21.10;99.90;;;20.09;100.00;99787.66;5010200;28;20016;-80
2021/07/14 04:48:40;;;;;;;;;;;21.10;99.90;;;20.09;100.00;99793.19;5010359;28;19925;-80
2021/07/14 04:51:07;;;;;;;;;;;21.10;99.90;;;20.08;100.00;99786.00;5010380;28;19922;-80
2021/07/14 04:53:35;;;;;;;;;;;21.10;99.90;;;20.09;100.00;99793.19;5010379;28;20007;-80
2021/07/14 04:56:02;;;;;;;;;;;21.10;99.90;;;20.07;100.00;99796.22;5009849;28;19925;-80
2021/07/14 04:58:29;;;;;;;;;;;21.10;99.90;;;20.07;100.00;99792.63;5010298;28;20370;-80
2021/07/14 05:00:57;;;;;;;;;;;21.10;99.90;;;20.07;100.00;99792.63;5010077;28;20019;-80
2021/07/14 05:03:24;;;;;;;;;;;21.10;99.90;;;20.07;100.00;99789.88;5008665;28;19925;-81
2021/07/14 05:05:52;;;;;;;;;;;21.10;99.90;;;20.06;100.00;99791.78;5009782;28;19929;-81
2021/07/14 05:08:19;;;;;;;;;;;21.10;99.90;;;20.06;100.00;99788.19;4992222;28;20402;-80
2021/07/14 05:10:48;;;;;;;;;;;21.10;99.90;;;20.06;100.00;99788.19;5010036;28;20008;-80
2021/07/14 05:13:16;;;;;;;;;;;21.10;99.90;;;20.05;100.00;99792.06;5009985;28;19925;-80
2021/07/14 05:15:44;;;;;;;;;;;21.10;99.90;;;20.05;100.00;99783.78;5009997;28;19928;-80
2021/07/14 05:18:13;;;;;;;;;;;21.10;99.90;;;20.05;100.00;99789.31;5009412;28;20024;-83
2021/07/14 05:20:42;;;;;;;;;;;21.10;99.90;;;20.05;100.00;99792.06;5009808;28;19929;-83
2021/07/14 05:23:09;;;;;;;;;;;21.10;99.90;;;20.05;100.00;99794.84;5009708;28;20382;-89
2021/07/14 05:25:36;;;;;;;;;;;21.10;99.90;;;20.03;100.00;99797.84;5009946;28;19984;-85
2021/07/14 05:28:05;;;;;;;;;;;21.10;99.90;;;20.04;100.00;99801.44;5009398;28;19963;-85
2021/07/14 05:30:32;;;;;;;;;;;21.10;99.90;;;20.03;100.00;99800.63;5009831;28;19929;-84
2021/07/14 05:33:00;;;;;;;;;;;21.10;99.90;;;20.03;100.00;99800.63;5009768;28;19965;-85
2021/07/14 05:35:28;;;;;;;;;;;21.10;99.90;;;20.04;100.00;99812.50;5009705;28;20025;-85
2021/07/14 05:37:55;;;;;;;;;;;21.10;99.90;;;20.04;100.00;99809.72;5009585;28;19965;-85
2021/07/14 05:40:23;;;;;;;;;;;21.10;99.90;;;20.05;100.00;99814.16;4991912;28;20011;-85
2021/07/14 05:42:50;;;;;;;;;;;21.10;99.90;;;20.04;100.00;99807.78;5009478;28;19929;-85
2021/07/14 05:45:17;;;;;;;;;;;21.10;99.90;;;20.05;100.00;99815.00;5009402;28;20019;-86
2021/07/14 05:47:47;;;;;;;;;;;21.10;99.90;;;20.06;100.00;99815.81;5009222;28;19932;-84
2021/07/14 05:50:14;;;;;;;;;;;21.10;99.90;;;20.06;100.00;99818.56;5009371;28;20492;-86
2021/07/14 05:52:43;;;;;;;;;;;21.10;99.90;;;20.06;100.00;99808.34;5009532;28;20439;-84
2021/07/14 05:55:11;;;;;;;;;;;21.10;99.90;;;20.06;100.00;99813.06;5009536;28;20027;-84
2021/07/14 05:57:38;;;;;;;;;;;21.10;99.90;;;20.05;100.00;99809.47;5008223;28;19921;-84
2021/07/14 06:00:08;;;;;;;;;;;21.10;99.90;;;20.05;100.00;99815.00;5009548;28;20438;-83
2021/07/14 06:02:35;;;;;;;;;;;21.10;99.90;;;20.04;100.00;99805.03;5009189;28;19929;-85
2021/07/14 06:05:04;;;;;;;;;;;21.10;99.90;;;20.04;100.00;99807.78;5009449;28;19956;-85
2021/07/14 06:07:32;;;;;;;;;;;21.10;99.90;;;20.03;100.00;99802.53;4991221;28;20373;-85
2021/07/14 06:10:00;;;;;;;;;;;21.10;99.90;;;20.03;100.00;99803.38;5009411;28;20324;-85
2021/07/14 06:12:27;;;;;;;;;;;21.10;99.90;;;20.04;100.00;99795.91;5005280;28;19926;-84
2021/07/14 06:14:54;;;;;;;;;;;21.10;99.90;;;20.03;100.00;99802.53;5006097;28;19926;-84
2021/07/14 06:17:21;;;;;;;;;;;21.10;99.90;;;20.03;100.00;99794.25;5004286;28;19929;-84
2021/07/14 06:19:48;;;;;;;;;;;21.20;99.90;;;20.05;100.00;99800.34;5006278;28;19968;-83
2021/07/14 06:22:15;;;;;;;;;;;21.10;99.90;;;20.05;100.00;99800.34;5002638;28;19956;-83
2021/07/14 06:24:43;;;;;;;;;;;21.10;99.90;;;20.04;100.00;99801.44;5028053;28;19929;-85
2021/07/14 06:27:11;;;;;;;;;;;21.10;99.90;;;20.05;100.00;99808.66;5012812;28;19929;-83
2021/07/14 06:29:39;;;;;;;;;;;21.10;99.90;;;20.05;100.00;99800.34;5011930;28;19953;-83
2021/07/14 06:32:07;;;;;;;;;;;21.20;99.90;;;20.04;100.00;99802.25;4995204;28;20370;-84
2021/07/14 06:34:34;;;;;;;;;;;21.20;99.90;;;20.05;100.00;99801.19;5011288;28;19929;-84
2021/07/14 06:37:01;;;;;;;;;;;21.20;99.90;;;20.05;100.00;99803.13;4994576;28;19961;-84
2021/07/14 06:39:28;;;;;;;;;;;21.20;99.90;;;20.04;100.00;99810.56;5012953;28;19921;-83
2021/07/14 06:41:56;;;;;;;;;;;21.20;99.90;;;20.05;100.00;99808.66;5012418;28;19932;-84
2021/07/14 06:44:24;;;;;;;;;;;21.20;99.90;;;20.05;100.00;99803.13;4995082;28;19925;-84
2021/07/14 06:46:51;;;;;;;;;;;21.20;99.90;;;20.05;100.00;99808.66;5012540;28;19957;-84
2021/07/14 06:49:18;;;;;;;;;;;21.10;99.90;;;20.06;100.00;99813.06;5012669;28;19921;-84
2021/07/14 06:51:45;;;;;;;;;;;21.20;99.90;;;20.07;100.00;99814.72;5012764;28;19968;-84
2021/07/14 06:54:12;;;;;;;;;;;21.20;99.90;;;20.06;100.00;99813.06;5012075;28;19940;-83
2021/07/14 06:56:40;;;;;;;;;;;21.20;99.90;;;20.06;100.00;99816.63;5012306;28;19975;-82
2021/07/14 06:59:07;;;;;;;;;;;21.10;99.90;;;20.06;100.00;99815.81;5012559;28;20389;-82
2021/07/14 07:01:35;;;;;;;;;;;21.10;99.90;;;20.06;100.00;99815.81;5011943;28;20004;-82
2021/07/14 07:04:02;;;;;;;;;;;21.10;99.90;;;20.06;100.00;99810.28;5012521;28;20003;-88
2021/07/14 07:06:29;;;;;;;;;;;21.10;99.90;;;20.06;100.00;99813.06;5011002;28;19921;-86
2021/07/14 07:08:56;;;;;;;;;;;21.10;99.90;;;20.05;100.00;99819.69;5012576;28;20020;-86
2021/07/14 07:11:23;;;;;;;;;;;21.10;99.90;;;20.04;100.00;99813.31;5012288;28;19933;-88
2021/07/14 07:13:50;;;;;;;;;;;21.20;99.90;;;20.05;100.00;99814.16;5012304;28;19925;-87
2021/07/14 07:16:18;;;;;;;;;;;21.20;99.90;;;20.03;100.00;99817.19;5011695;28;19929;-88
2021/07/14 07:18:46;;;;;;;;;;;21.10;99.90;;;20.03;100.00;99813.56;5011924;28;19921;-86
2021/07/14 07:21:13;;;;;;;;;;;21.10;99.90;;;20.03;100.00;99810.81;5009901;28;20007;-84
2021/07/14 07:23:40;;;;;;;;;;;21.10;99.90;;;20.04;100.00;99804.19;5007345;28;19925;-83
2021/07/14 07:26:07;;;;;;;;;;;21.10;99.90;;;20.05;100.00;99808.66;5011718;28;19971;-83
2021/07/14 07:28:39;;;;;;;;;;;21.10;99.90;;;20.03;100.00;99819.94;5011982;28;19980;-84
2021/07/14 07:31:07;;;;;;;;;;;21.10;99.90;;;20.03;100.00;99814.44;5011782;28;19926;-84
2021/07/14 07:33:34;;;;;;;;;;;21.10;99.90;;;20.04;100.00;99812.50;5010203;28;19945;-84
2021/07/14 07:36:03;;;;;;;;;;;21.10;99.90;;;20.03;100.00;99821.84;4991794;28;20269;-84
2021/07/14 07:38:30;;;;;;;;;;;21.10;99.90;;;20.02;100.00;99811.91;4992301;28;19925;-83
2021/07/14 07:40:58;;;;;;;;;;;21.10;99.90;;;20.02;100.00;99806.41;4992072;28;19925;-85
2021/07/14 07:43:26;;;;;;;;;;;21.10;99.90;;;20.04;100.00;99815.25;4991929;28;19922;-83
2021/07/14 07:45:54;;;;;;;;;;;21.10;99.90;;;20.03;100.00;99808.91;4992071;28;19932;-83
2021/07/14 07:48:21;;;;;;;;;;;21.10;99.90;;;20.04;100.00;99818.00;4991786;28;19926;-84
2021/07/14 07:50:49;;;;;;;;;;;21.10;99.90;;;20.03;100.00;99808.91;4992120;28;19976;-84
2021/07/14 07:53:18;;;;;;;;;;;21.10;99.90;;;20.02;100.00;99809.97;4991730;28;20412;-84
2021/07/14 07:55:46;;;;;;;;;;;21.10;99.90;;;20.03;100.00;99799.75;4991992;28;19988;-84
2021/07/14 07:58:14;;;;;;;;;;;21.10;99.90;;;20.02;100.00;99803.63;4991841;28;19933;-89
2021/07/14 08:00:41;;;;;;;;;;;21.10;99.90;;;20.02;100.00;99804.47;4974000;28;19972;-88
2021/07/14 08:03:08;;;;;;;;;;;21.10;99.90;;;20.02;100.00;99803.63;4990982;28;20299;-89
2021/07/14 08:05:36;;;;;;;;;;;21.10;99.90;;;20.03;100.00;99805.28;5009435;28;20023;-87
2021/07/14 08:08:03;;;;;;;;;;;21.10;99.90;;;20.03;100.00;99805.28;4993220;28;20398;-90
2021/07/14 08:10:32;;;;;;;;;;;21.10;99.90;;;20.03;100.00;99813.56;5020981;28;19979;-88
2021/07/14 08:13:00;;;;;;;;;;;21.10;99.90;;;20.03;100.00;99808.03;5030523;28;20020;-91
2021/07/14 08:15:27;;;;;;;;;;;21.10;99.90;;;20.04;100.00;99806.97;5029445;28;19940;-87
2021/07/14 08:17:54;;;;;;;;;;;21.10;99.90;;;20.03;100.00;99813.56;5030405;28;19925;-87
2021/07/14 08:20:23;;;;;;;;;;;21.10;99.90;;;20.02;100.00;99807.22;5030934;28;19988;-88
2021/07/14 08:22:50;;;;;;;;;;;21.10;99.90;;;20.04;100.00;99806.97;5022715;28;19921;-86
2021/07/14 08:25:18;;;;;;;;;;;21.10;99.90;;;20.02;100.00;99798.94;5010925;28;19929;-87
2021/07/14 08:27:47;;;;;;;;;;;21.10;99.90;;;20.03;100.00;99808.03;5010629;28;19921;-89
2021/07/14 08:30:15;;;;;;;;;;;21.20;99.90;;;20.04;100.00;99815.25;5010536;28;20019;-90
2021/07/14 08:32:42;;;;;;;;;;;21.20;99.90;;;20.04;100.00;99812.50;5010892;28;19925;-86
2021/07/14 08:35:11;;;;;;;;;;;21.20;99.90;;;20.03;100.00;99816.34;5010640;28;20020;-86
2021/07/14 08:37:38;;;;;;;;;;;21.20;99.90;;;20.03;100.00;99810.81;5010238;28;19932;-87
2021/07/14 08:40:07;;;;;;;;;;;21.20;99.90;;;20.04;100.00;99818.00;4992800;28;19921;-87
2021/07/14 08:42:35;;;;;;;;;;;21.20;99.90;;;20.04;100.00;99818.00;4992969;28;20465;-88
2021/07/14 08:45:06;;;;;;;;;;;21.20;99.90;;;20.03;100.00;99816.34;5010386;28;19926;-88
2021/07/14 08:47:34;;;;;;;;;;;21.10;99.90;;;20.03;100.00;99819.94;5010101;28;19929;-87
2021/07/14 08:50:01;;;;;;;;;;;21.10;99.90;;;20.03;100.00;99816.34;4992864;28;20349;-90
2021/07/14 08:52:29;;;;;;;;;;;21.10;99.90;;;20.02;100.00;99814.69;5008791;28;19929;-88
2021/07/14 08:54:56;;;;;;;;;;;21.10;99.90;;;20.01;100.00;99808.34;5010485;28;19926;-88
2021/07/14 08:57:23;;;;;;;;;;;21.10;99.90;;;20.02;100.00;99817.44;5010012;28;19965;-89
2021/07/14 08:59:50;;;;;;;;;;;21.10;99.90;;;20.00;100.00;99803.06;5010490;28;20016;-89
2021/07/14 09:02:19;;;;;;;;;;;21.10;99.90;;;20.01;100.00;99807.47;5008751;28;20534;-88
2021/07/14 09:04:46;;;;;;;;;;;21.10;99.90;;;20.00;100.00;99812.19;5009985;28;19925;-86
2021/07/14 09:07:14;;;;;;;;;;;21.10;99.90;;;20.00;100.00;99805.84;5009695;28;19968;-86
2021/07/14 09:09:43;;;;;;;;;;;21.10;99.90;;;20.00;100.00;99806.66;5009733;28;19979;-83
2021/07/14 09:12:11;;;;;;;;;;;21.10;99.90;;;20.00;100.00;99806.66;5008673;28;19983;-82
2021/07/14 09:14:40;;;;;;;;;;;21.10;99.90;;;20.00;100.00;99805.84;5009692;28;19933;-82
2021/07/14 09:17:23;;;;;;;;;;;21.10;99.90;;;20.00;100.00;99805.84;5009772;28;20040;-85
2021/07/14 09:19:51;;;;;;;;;;;21.10;99.90;;;19.99;100.00;99802.25;5009677;28;20483;-84
2021/07/14 09:22:21;;;;;;;;;;;21.10;99.90;;;20.00;100.00;99805.84;5009836;28;19975;-83
2021/07/14 09:24:49;;;;;;;;;;;21.10;99.90;;;19.99;100.00;99813.28;5009841;28;19972;-82
2021/07/14 09:27:17;;;;;;;;;;;21.10;99.90;;;20.00;100.00;99803.91;5009264;28;19921;-82
2021/07/14 09:30:06;;;;;;;;;;;21.10;99.90;;;20.01;100.00;99810.25;5009772;28;19926;-82
2021/07/14 09:32:46;;;;;;;;;;;21.10;99.90;;;20.02;100.00;99809.16;5009460;28;19980;-83
2021/07/14 09:35:22;;;;;;;;;;;21.10;99.90;;;20.00;100.00;99808.59;5009815;28;19964;-84
2021/07/14 09:37:49;;;;;;;;;;;21.10;99.90;;;20.00;100.00;99806.66;4991218;28;19921;-82
2021/07/14 09:40:17;;;;;;;;;;;21.10;99.90;;;20.01;100.00;99804.72;5009636;28;20358;-82
2021/07/14 09:42:51;;;;;;;;;;;21.10;99.90;;;20.00;100.00;99809.41;5009216;28;19983;-82
2021/07/14 09:45:39;;;;;;;;;;;21.10;99.90;;;20.00;100.00;99806.66;5009511;28;20372;-83
2021/07/14 09:48:09;;;;;;;;;;;21.10;99.90;;;20.00;100.00;99803.91;5010272;28;20447;-83
2021/07/14 09:50:40;;;;;;;;;;;21.10;99.90;;;20.01;100.00;99805.56;5028964;28;19928;-82
2021/07/14 09:53:09;;;;;;;;;;;21.10;99.90;;;20.01;100.00;99807.47;5007718;28;20444;-83
2021/07/14 09:55:36;;;;;;;;;;;21.10;99.90;;;20.01;100.00;99813.88;5009087;28;20012;-85
2021/07/14 09:58:08;;;;;;;;;;;21.10;99.90;;;20.01;100.00;99810.25;5006262;28;19999;-90
2021/07/14 10:00:40;;;;;;;;;;;21.10;99.90;;;20.01;100.00;99801.97;5008494;28;19995;-88
2021/07/14 10:03:08;;;;;;;;;;;21.10;99.90;;;20.01;100.00;99807.47;5006770;28;19960;-83
2021/07/14 10:05:36;;;;;;;;;;;21.20;99.90;;;20.02;100.00;99811.91;4990990;28;20372;-85
2021/07/14 10:08:16;;;;;;;;;;;21.20;99.90;;;20.01;100.00;99807.47;5008802;28;19925;-86
2021/07/14 10:10:44;;;;;;;;;;;21.20;99.90;;;20.02;100.00;99809.16;5009204;28;20057;-85
2021/07/14 10:13:11;;;;;;;;;;;21.20;99.90;;;20.02;100.00;99804.47;5008948;28;20374;-87
2021/07/14 10:15:40;;;;;;;;;;;21.20;99.90;;;20.02;100.00;99804.47;5009197;28;20476;-87
2021/07/14 10:18:13;;;;;;;;;;;21.20;99.90;;;20.03;100.00;99805.28;5007115;28;19926;-87
2021/07/14 10:20:43;;;;;;;;;;;21.20;99.90;;;20.04;100.00;99804.19;4996296;28;19928;-91
2021/07/14 10:23:12;;;;;;;;;;;21.20;99.90;;;20.03;100.00;99802.53;5027373;28;20123;-91
2021/07/14 10:25:41;;;;;;;;;;;21.20;99.90;;;20.04;100.00;99806.97;5028867;28;19971;-92
2021/07/14 10:28:10;;;;;;;;;;;21.20;99.90;;;20.04;100.00;99812.50;5027297;28;19928;-92
2021/07/14 10:30:40;;;;;;;;;;;21.20;99.90;;;20.04;100.00;99809.72;5010832;28;19921;-93
2021/07/14 10:33:08;;;;;;;;;;;21.20;99.90;;;20.04;100.00;99812.50;5024229;28;19921;-87
2021/07/14 10:35:40;;;;;;;;;;;21.20;99.90;;;20.03;100.00;99813.56;5008763;28;19925;-87
2021/07/14 10:38:13;;;;;;;;;;;21.20;99.90;;;20.03;100.00;99816.34;5008774;28;19953;-88
2021/07/14 10:40:41;;;;;;;;;;;21.20;99.90;;;20.03;100.00;99817.19;5007268;28;19979;-87
2021/07/14 10:43:08;;;;;;;;;;;21.20;99.90;;;20.04;100.00;99820.78;5008923;28;19931;-86
2021/07/14 10:45:35;;;;;;;;;;;21.20;99.90;;;20.04;100.00;99820.78;5008733;28;19995;-87
2021/07/14 10:48:02;;;;;;;;;;;21.30;99.90;;;20.04;100.00;99827.13;4990676;28;19921;-87
2021/07/14 10:50:29;;;;;;;;;;;21.30;99.90;;;20.05;100.00;99817.75;5008750;28;19925;-87
2021/07/14 10:52:58;;;;;;;;;;;21.30;99.90;;;20.04;100.00;99810.56;5008591;28;19952;-86
2021/07/14 10:55:29;;;;;;;;;;;21.30;99.90;;;20.04;100.00;99807.78;5008941;28;19927;-86
2021/07/14 10:57:57;;;;;;;;;;;21.20;99.90;;;20.04;100.00;99798.69;5008153;28;20428;-87
2021/07/14 11:00:24;;;;;;;;;;;21.20;99.90;;;20.05;100.00;99797.59;5008838;28;20664;-87
2021/07/14 11:02:53;;;;;;;;;;;21.20;99.90;;;20.05;100.00;99800.34;4990925;28;20036;-86
2021/07/14 11:05:33;;;;;;;;;;;21.20;99.90;;;20.04;100.00;99802.25;5008209;28;19941;-87
2021/07/14 11:08:01;;;;;;;;;;;21.20;99.90;;;20.05;100.00;99811.41;5011011;28;19964;-87
2021/07/14 11:10:31;;;;;;;;;;;21.20;99.90;;;20.05;100.00;99811.41;5012529;28;19972;-87
2021/07/14 11:12:59;;;;;;;;;;;21.20;99.90;;;20.06;100.00;99821.34;5027321;28;20305;-88
2021/07/14 11:15:36;;;;;;;;;;;21.30;99.90;;;20.05;100.00;99819.69;5012216;28;20321;-86
2021/07/14 11:18:48;;;;;;;;;;;21.30;99.90;;;20.04;100.00;99813.31;5011922;28;19929;-87
2021/07/14 11:21:46;;;;;;;;;;;21.30;99.90;;;20.05;100.00;99814.16;4970086;28;19930;-86
2021/07/14 11:24:29;;;;;;;;;;;21.30;99.90;;;20.06;100.00;99810.28;5010909;28;19968;-87
2021/07/14 11:26:56;;;;;;;;;;;21.20;99.90;;;20.05;100.00;99808.66;5011321;28;19929;-87
2021/07/14 11:29:23;;;;;;;;;;;21.20;99.90;;;20.05;100.00;99803.94;5012121;28;19957;-87